createdAt,value
2023-11-20T00:01:22.626Z,99073.25
2023-11-20T00:03:51.719Z,99081.94
2023-11-20T00:06:18.533Z,99080.19
2023-11-20T00:08:46.778Z,99084.47
2023-11-20T00:11:17.035Z,99079.53
2023-11-20T00:13:44.276Z,99075.00
2023-11-20T00:16:14.244Z,99074.91
2023-11-20T00:18:41.670Z,99068.53
2023-11-20T00:21:08.607Z,99075.75
2023-11-20T00:23:35.331Z,99079.91
2023-11-20T00:26:02.729Z,99072.56
2023-11-20T00:28:29.408Z,99076.31
2023-11-20T00:30:56.207Z,99076.31
2023-11-20T00:33:22.910Z,99075.94
2023-11-20T00:35:49.628Z,99071.34
2023-11-20T00:38:16.287Z,99066.91
2023-11-20T00:40:42.915Z,99061.88
2023-11-20T00:43:09.674Z,99067.19
2023-11-20T00:45:36.605Z,99064.38
2023-11-20T00:48:03.377Z,99051.66
2023-11-20T00:50:30.229Z,99050.59
2023-11-20T00:52:56.909Z,99038.13
2023-11-20T00:55:23.635Z,99036.81
2023-11-20T00:57:50.341Z,99038.91
2023-11-20T01:00:19.700Z,99040.56
2023-11-20T01:02:46.722Z,99027.25
2023-11-20T01:05:13.548Z,99032.44
2023-11-20T01:07:40.290Z,99029.75
2023-11-20T01:10:07.998Z,99028.69
2023-11-20T01:12:34.915Z,99016.16
2023-11-20T01:15:02.554Z,99023.78
2023-11-20T01:17:29.983Z,99026.06
2023-11-20T01:19:56.665Z,99022.91
2023-11-20T01:22:23.394Z,99022.03
2023-11-20T01:24:50.020Z,99010.75
2023-11-20T01:27:17.035Z,99018.66
2023-11-20T01:29:43.852Z,99006.81
2023-11-20T01:32:10.492Z,99012.00
2023-11-20T01:34:37.133Z,99006.81
2023-11-20T01:37:04.172Z,99008.72
2023-11-20T01:39:32.507Z,99002.47
2023-11-20T01:41:59.288Z,99002.47
2023-11-20T01:44:25.980Z,99003.91
2023-11-20T01:46:52.723Z,99002.47
2023-11-20T01:49:19.477Z,99005.56
2023-11-20T01:51:46.919Z,99006.63
2023-11-20T01:54:14.900Z,99005.91
2023-11-20T01:56:41.821Z,99006.81
2023-11-20T01:59:09.121Z,99000.91
2023-11-20T02:01:36.243Z,99000.22
2023-11-20T02:04:05.144Z,99002.84
2023-11-20T02:06:32.162Z,99002.16
2023-11-20T02:08:58.866Z,99000.91
2023-11-20T02:11:27.410Z,99006.63
2023-11-20T02:13:55.572Z,99008.63
2023-11-20T02:16:22.406Z,99002.75
2023-11-20T02:18:49.139Z,99002.84
2023-11-20T02:21:15.904Z,99001.50
2023-11-20T02:23:42.585Z,98996.28
2023-11-20T02:26:34.922Z,98992.97
2023-11-20T02:29:14.646Z,98992.13
2023-11-20T02:31:42.996Z,98985.19
2023-11-20T02:34:10.302Z,98990.13
2023-11-20T02:36:37.330Z,98991.84
2023-11-20T02:39:04.114Z,98996.19
2023-11-20T02:41:31.087Z,98996.94
2023-11-20T02:43:57.863Z,98987.63
2023-11-20T02:46:24.558Z,98987.41
2023-11-20T02:48:51.238Z,98997.06
2023-11-20T02:51:17.894Z,98993.00
2023-11-20T02:53:44.533Z,98994.84
2023-11-20T02:56:11.160Z,98993.78
2023-11-20T02:58:37.763Z,98980.47
2023-11-20T03:01:06.062Z,98978.75
2023-11-20T03:03:32.926Z,98974.09
2023-11-20T03:05:59.657Z,98978.91
2023-11-20T03:08:26.345Z,98977.19
2023-11-20T03:10:53.093Z,98975.84
2023-11-20T03:13:19.806Z,98969.09
2023-11-20T03:15:46.507Z,98976.63
2023-11-20T03:18:13.531Z,98969.09
2023-11-20T03:20:40.206Z,98966.41
2023-11-20T03:23:06.910Z,98959.28
2023-11-20T03:25:33.514Z,98960.03
2023-11-20T03:28:00.212Z,98959.16
2023-11-20T03:30:28.697Z,98946.34
2023-11-20T03:32:55.444Z,98957.75
2023-11-20T03:35:23.485Z,98957.34
2023-11-20T03:37:50.144Z,98944.03
2023-11-20T03:40:16.865Z,98950.97
2023-11-20T03:42:43.707Z,98943.56
2023-11-20T03:45:10.620Z,98945.47
2023-11-20T03:47:37.399Z,98934.91
2023-11-20T03:50:05.043Z,98923.81
2023-11-20T03:52:31.738Z,98930.56
2023-11-20T03:54:59.130Z,98928.84
2023-11-20T03:57:25.777Z,98928.03
2023-11-20T03:59:52.492Z,98926.31
2023-11-20T04:02:19.156Z,98926.72
2023-11-20T04:04:46.201Z,98924.09
2023-11-20T04:07:13.281Z,98916.78
2023-11-20T04:09:40.229Z,98921.13
2023-11-20T04:12:07.350Z,98912.63
2023-11-20T04:14:34.038Z,98904.94
2023-11-20T04:17:00.764Z,98908.19
2023-11-20T04:19:27.966Z,98911.66
2023-11-20T04:21:54.993Z,98917.56
2023-11-20T04:24:21.856Z,98926.34
2023-11-20T04:26:48.744Z,98923.63
2023-11-20T04:29:15.553Z,98928.63
2023-11-20T04:31:42.232Z,98925.19
2023-11-20T04:34:08.937Z,98925.28
2023-11-20T04:36:35.647Z,98921.13
2023-11-20T04:39:02.570Z,98927.66
2023-11-20T04:41:29.267Z,98920.16
2023-11-20T04:43:56.088Z,98920.06
2023-11-20T04:46:22.741Z,98926.22
2023-11-20T04:48:49.422Z,98923.41
2023-11-20T04:51:23.526Z,98921.09
2023-11-20T04:53:50.786Z,98922.81
2023-11-20T04:56:17.497Z,98921.09
2023-11-20T04:58:47.494Z,98924.97
2023-11-20T05:01:15.115Z,98924.75
2023-11-20T05:03:46.414Z,98905.38
2023-11-20T05:06:14.740Z,98916.09
2023-11-20T05:08:41.602Z,98907.59
2023-11-20T05:11:08.242Z,98916.09
2023-11-20T05:13:34.930Z,98911.47
2023-11-20T05:16:01.708Z,98918.59
2023-11-20T05:18:28.395Z,98918.81
2023-11-20T05:20:55.067Z,98922.81
2023-11-20T05:23:21.766Z,98923.03
2023-11-20T05:25:48.400Z,98919.53
2023-11-20T05:28:16.234Z,98921.31
2023-11-20T05:30:44.098Z,98922.81
2023-11-20T05:33:11.986Z,98920.81
2023-11-20T05:35:40.294Z,98921.09
2023-11-20T05:38:06.995Z,98915.47
2023-11-20T05:40:34.215Z,98927.84
2023-11-20T05:43:01.512Z,98925.25
2023-11-20T05:45:28.501Z,98925.81
2023-11-20T05:47:55.416Z,98927.63
2023-11-20T05:50:22.223Z,98933.31
2023-11-20T05:52:49.020Z,98927.47
2023-11-20T05:55:15.763Z,98927.63
2023-11-20T05:57:42.464Z,98934.19
2023-11-20T06:00:11.728Z,98935.34
2023-11-20T06:02:38.814Z,98934.41
2023-11-20T06:05:08.275Z,98933.63
2023-11-20T06:07:36.575Z,98940.06
2023-11-20T06:10:03.975Z,98936.00
2023-11-20T06:12:30.818Z,98936.91
2023-11-20T06:14:57.488Z,98943.25
2023-11-20T06:17:24.262Z,98945.00
2023-11-20T06:19:51.040Z,98934.97
2023-11-20T06:22:17.718Z,98942.13
2023-11-20T06:24:44.718Z,98939.03
2023-11-20T06:27:11.629Z,98938.63
2023-11-20T06:29:40.175Z,98940.75
2023-11-20T06:32:08.245Z,98939.31
2023-11-20T06:34:35.292Z,98941.91
2023-11-20T06:37:02.547Z,98947.31
2023-11-20T06:39:29.258Z,98937.56
2023-11-20T06:41:56.001Z,98949.06
2023-11-20T06:44:23.760Z,98945.78
2023-11-20T06:46:52.964Z,98938.84
2023-11-20T06:49:22.984Z,98936.81
2023-11-20T06:51:49.672Z,98941.09
2023-11-20T06:54:16.727Z,98924.50
2023-11-20T06:56:43.448Z,98940.13
2023-11-20T06:59:10.106Z,98940.00
2023-11-20T07:01:36.724Z,98939.53
2023-11-20T07:04:03.798Z,98941.75
2023-11-20T07:06:30.503Z,98948.31
2023-11-20T07:08:57.191Z,98948.09
2023-11-20T07:11:23.864Z,98943.28
2023-11-20T07:13:50.727Z,98945.97
2023-11-20T07:16:17.454Z,98957.16
2023-11-20T07:18:44.204Z,98959.56
2023-11-20T07:21:11.270Z,98958.69
2023-11-20T07:23:38.154Z,98958.88
2023-11-20T07:26:04.906Z,98957.91
2023-11-20T07:28:31.581Z,98960.88
2023-11-20T07:30:58.284Z,98969.47
2023-11-20T07:33:25.000Z,98968.88
2023-11-20T07:35:53.032Z,98961.84
2023-11-20T07:38:19.916Z,98963.09
2023-11-20T07:40:46.997Z,98965.78
2023-11-20T07:43:13.817Z,98966.72
2023-11-20T07:45:40.662Z,98953.44
2023-11-20T07:48:09.143Z,98946.91
2023-11-20T07:50:35.942Z,98951.47
2023-11-20T07:53:05.541Z,98942.69
2023-11-20T07:55:32.785Z,98948.16
2023-11-20T07:58:00.017Z,98947.38
2023-11-20T08:00:26.742Z,98930.72
2023-11-20T08:02:54.093Z,98940.59
2023-11-20T08:05:21.080Z,98925.28
2023-11-20T08:07:48.183Z,98921.78
2023-11-20T08:10:17.378Z,98931.06
2023-11-20T08:12:44.101Z,98930.72
2023-11-20T08:15:13.633Z,98925.53
2023-11-20T08:17:41.142Z,98932.66
2023-11-20T08:20:09.133Z,98927.28
2023-11-20T08:22:37.185Z,98920.69
2023-11-20T08:25:04.726Z,98916.56
2023-11-20T08:27:31.553Z,98915.00
2023-11-20T08:29:58.258Z,98920.19
2023-11-20T08:32:26.406Z,98911.88
2023-11-20T08:34:53.148Z,98910.84
2023-11-20T08:37:19.907Z,98909.63
2023-11-20T08:39:48.668Z,98905.56
2023-11-20T08:42:15.459Z,98898.63
2023-11-20T08:44:42.470Z,98901.47
2023-11-20T08:47:10.395Z,98897.78
2023-11-20T08:49:38.219Z,98898.47
2023-11-20T08:52:07.093Z,98887.25
2023-11-20T08:54:35.137Z,98888.47
2023-11-20T08:57:02.428Z,98887.06
2023-11-20T08:59:32.473Z,98877.03
2023-11-20T09:01:59.741Z,98887.59
2023-11-20T09:04:27.540Z,98886.28
2023-11-20T09:06:54.463Z,98880.00
2023-11-20T09:09:22.068Z,98887.47
2023-11-20T09:11:48.858Z,98875.16
2023-11-20T09:14:15.832Z,98874.88
2023-11-20T09:16:42.617Z,98863.97
2023-11-20T09:19:09.563Z,98872.56
2023-11-20T09:21:36.403Z,98870.28
2023-11-20T09:24:03.264Z,98873.34
2023-11-20T09:26:29.912Z,98872.00
2023-11-20T09:28:56.659Z,98859.59
2023-11-20T09:31:23.624Z,98869.25
2023-11-20T09:33:51.747Z,98862.25
2023-11-20T09:36:20.115Z,98844.00
2023-11-20T09:38:47.054Z,98853.06
2023-11-20T09:41:14.588Z,98858.88
2023-11-20T09:43:43.476Z,98860.50
2023-11-20T09:46:12.193Z,98856.06
2023-11-20T09:48:39.933Z,98847.16
2023-11-20T09:51:13.593Z,98840.81
2023-11-20T09:53:43.148Z,98844.31
2023-11-20T09:56:13.220Z,98841.28
2023-11-20T09:58:42.057Z,98851.22
2023-11-20T10:01:12.242Z,98842.25
2023-11-20T10:03:41.267Z,98835.25
2023-11-20T10:06:11.420Z,98836.41
2023-11-20T10:08:42.112Z,98836.97
2023-11-20T10:11:12.411Z,98829.75
2023-11-20T10:13:40.822Z,98832.47
2023-11-20T10:16:14.514Z,98829.16
2023-11-20T10:18:43.711Z,98831.16
2023-11-20T10:21:12.616Z,98835.88
2023-11-20T10:23:41.176Z,98833.19
2023-11-20T10:26:09.110Z,98830.25
2023-11-20T10:28:40.435Z,98833.38
2023-11-20T10:31:07.926Z,98829.72
2023-11-20T10:33:37.813Z,98829.25
2023-11-20T10:36:18.465Z,98826.34
2023-11-20T10:38:46.022Z,98830.91
2023-11-20T10:41:13.415Z,98833.50
2023-11-20T10:43:42.113Z,98835.69
2023-11-20T10:46:09.461Z,98825.78
2023-11-20T10:48:40.280Z,98835.97
2023-11-20T10:51:10.191Z,98827.13
2023-11-20T10:53:41.626Z,98829.72
2023-11-20T10:56:09.330Z,98838.34
2023-11-20T10:58:36.309Z,98835.63
2023-11-20T11:01:03.512Z,98841.44
2023-11-20T11:03:34.426Z,98836.78
2023-11-20T11:06:11.161Z,98836.00
2023-11-20T11:08:38.908Z,98835.28
2023-11-20T11:11:05.826Z,98843.00
2023-11-20T11:13:33.755Z,98842.78
2023-11-20T11:16:03.986Z,98840.16
2023-11-20T11:18:34.934Z,98832.75
2023-11-20T11:21:03.331Z,98822.03
2023-11-20T11:23:52.089Z,98820.44
2023-11-20T11:26:36.783Z,98824.50
2023-11-20T11:29:09.558Z,98812.25
2023-11-20T11:32:02.511Z,98822.09
2023-11-20T11:34:55.070Z,98827.84
2023-11-20T11:37:47.253Z,98825.84
2023-11-20T11:40:26.483Z,98828.41
2023-11-20T11:42:58.675Z,98825.75
2023-11-20T11:45:29.464Z,98831.00
2023-11-20T11:47:56.136Z,98827.31
2023-11-20T11:50:23.276Z,98818.59
2023-11-20T11:52:51.336Z,98821.53
2023-11-20T11:55:18.067Z,98815.50
2023-11-20T11:58:03.231Z,98812.38
2023-11-20T12:00:32.123Z,98812.19
2023-11-20T12:03:03.486Z,98812.19
2023-11-20T12:05:33.030Z,98800.25
2023-11-20T12:08:04.286Z,98802.00
2023-11-20T12:10:42.067Z,98800.75
2023-11-20T12:13:09.595Z,98801.69
2023-11-20T12:16:04.964Z,98805.88
2023-11-20T12:18:39.123Z,98800.41
2023-11-20T12:21:11.361Z,98811.03
2023-11-20T12:23:40.339Z,98808.81
2023-11-20T12:26:12.427Z,98810.91
2023-11-20T12:28:41.771Z,98794.69
2023-11-20T12:31:13.031Z,98799.59
2023-11-20T12:33:43.095Z,98799.44
2023-11-20T12:36:11.344Z,98795.09
2023-11-20T12:38:39.016Z,98796.81
2023-11-20T12:41:09.026Z,98795.09
2023-11-20T12:43:39.655Z,98792.66
2023-11-20T12:46:08.315Z,98788.66
2023-11-20T12:48:37.989Z,98788.94
2023-11-20T12:51:08.016Z,98778.28
2023-11-20T12:53:37.503Z,98775.63
2023-11-20T12:56:06.364Z,98774.47
2023-11-20T12:58:33.682Z,98781.47
2023-11-20T13:01:05.753Z,98768.66
2023-11-20T13:03:35.940Z,98777.44
2023-11-20T13:06:06.025Z,98767.72
2023-11-20T13:08:36.125Z,98780.81
2023-11-20T13:11:03.329Z,98781.91
2023-11-20T13:13:33.812Z,98780.69
2023-11-20T13:16:01.327Z,98777.22
2023-11-20T13:18:29.924Z,98786.75
2023-11-20T13:20:57.269Z,98791.06
2023-11-20T13:23:34.783Z,98780.38
2023-11-20T13:26:09.879Z,98783.13
2023-11-20T13:28:37.606Z,98789.16
2023-11-20T13:31:08.842Z,98788.06
2023-11-20T13:33:43.115Z,98786.97
2023-11-20T13:36:11.865Z,98792.31
2023-11-20T13:38:39.399Z,98778.50
2023-11-20T13:41:09.810Z,98795.72
2023-11-20T13:43:36.699Z,98799.94
2023-11-20T13:46:03.758Z,98795.84
2023-11-20T13:48:33.689Z,98799.53
2023-11-20T13:51:01.330Z,98797.19
2023-11-20T13:53:28.091Z,98793.59
2023-11-20T13:55:56.336Z,98799.81
2023-11-20T13:58:25.396Z,98799.03
2023-11-20T14:00:53.857Z,98795.81
2023-11-20T14:03:21.216Z,98801.97
2023-11-20T14:05:48.995Z,98798.50
2023-11-20T14:08:16.504Z,98805.00
2023-11-20T14:10:52.595Z,98797.34
2023-11-20T14:13:24.959Z,98797.44
2023-11-20T14:15:52.238Z,98803.84
2023-11-20T14:18:21.299Z,98803.31
2023-11-20T14:20:48.230Z,98803.28
2023-11-20T14:23:14.859Z,98805.47
2023-11-20T14:25:51.079Z,98804.72
2023-11-20T14:28:28.866Z,98806.59
2023-11-20T14:30:55.753Z,98808.16
2023-11-20T14:33:22.410Z,98813.94
2023-11-20T14:35:49.355Z,98803.13
2023-11-20T14:38:16.151Z,98812.69
2023-11-20T14:40:43.021Z,98816.22
2023-11-20T14:43:09.982Z,98820.81
2023-11-20T14:45:38.342Z,98813.91
2023-11-20T14:48:05.455Z,98823.69
2023-11-20T14:50:32.112Z,98821.91
2023-11-20T14:52:58.787Z,98818.38
2023-11-20T14:55:25.529Z,98821.38
2023-11-20T14:57:53.549Z,98826.34
2023-11-20T15:00:21.469Z,98820.44
2023-11-20T15:02:51.352Z,98830.75
2023-11-20T15:05:18.579Z,98826.41
2023-11-20T15:07:45.609Z,98826.56
2023-11-20T15:10:17.041Z,98828.06
2023-11-20T15:12:44.980Z,98832.25
2023-11-20T15:15:13.270Z,98837.19
2023-11-20T15:17:42.231Z,98837.75
2023-11-20T15:20:19.167Z,98842.09
2023-11-20T15:22:47.768Z,98845.09
2023-11-20T15:25:14.741Z,98842.56
2023-11-20T15:27:42.340Z,98838.09
2023-11-20T15:30:09.594Z,98840.06
2023-11-20T15:32:36.297Z,98842.41
2023-11-20T15:35:04.327Z,98843.13
2023-11-20T15:37:33.144Z,98844.78
2023-11-20T15:40:00.208Z,98840.59
2023-11-20T15:42:27.066Z,98841.41
2023-11-20T15:44:53.747Z,98846.59
2023-11-20T15:47:20.567Z,98843.13
2023-11-20T15:49:47.947Z,98844.78
2023-11-20T15:52:14.720Z,98845.50
2023-11-20T15:54:41.444Z,98850.38
2023-11-20T15:57:08.175Z,98848.03
2023-11-20T15:59:37.692Z,98846.22
2023-11-20T16:02:04.690Z,98855.44
2023-11-20T16:04:32.607Z,98860.28
2023-11-20T16:07:00.181Z,98858.94
2023-11-20T16:09:26.964Z,98858.94
2023-11-20T16:11:54.090Z,98859.84
2023-11-20T16:14:26.889Z,98857.97
2023-11-20T16:16:54.489Z,98866.13
2023-11-20T16:19:22.940Z,98864.56
2023-11-20T16:21:49.884Z,98868.31
2023-11-20T16:24:17.148Z,98867.88
2023-11-20T16:26:43.954Z,98863.75
2023-11-20T16:29:10.613Z,98869.59
2023-11-20T16:31:37.509Z,98875.31
2023-11-20T16:34:04.431Z,98876.97
2023-11-20T16:36:31.285Z,98876.22
2023-11-20T16:38:59.552Z,98882.97
2023-11-20T16:41:26.427Z,98883.88
2023-11-20T16:43:53.934Z,98888.16
2023-11-20T16:46:24.773Z,98889.88
2023-11-20T16:48:52.262Z,98893.03
2023-11-20T16:51:20.010Z,98883.75
2023-11-20T16:53:47.961Z,98882.34
2023-11-20T16:56:15.432Z,98884.69
2023-11-20T16:58:42.350Z,98883.13
2023-11-20T17:01:11.189Z,98884.91
2023-11-20T17:03:38.230Z,98886.56
2023-11-20T17:06:07.950Z,98893.88
2023-11-20T17:08:35.737Z,98897.03
2023-11-20T17:11:03.067Z,98892.88
2023-11-20T17:13:29.808Z,98891.84
2023-11-20T17:15:56.826Z,98896.19
2023-11-20T17:18:23.592Z,98903.38
2023-11-20T17:20:51.088Z,98904.72
2023-11-20T17:23:17.811Z,98900.72
2023-11-20T17:25:44.640Z,98909.38
2023-11-20T17:28:11.559Z,98905.59
2023-11-20T17:30:38.331Z,98900.81
2023-11-20T17:33:05.061Z,98911.56
2023-11-20T17:35:32.772Z,98897.72
2023-11-20T17:37:59.432Z,98899.38
2023-11-20T17:40:26.215Z,98905.34
2023-11-20T17:42:52.915Z,98905.44
2023-11-20T17:45:19.601Z,98901.66
2023-11-20T17:47:46.588Z,98900.78
2023-11-20T17:50:13.311Z,98906.69
2023-11-20T17:52:40.273Z,98909.97
2023-11-20T17:55:10.216Z,98910.13
2023-11-20T17:57:37.411Z,98917.84
2023-11-20T18:00:11.919Z,98914.41
2023-11-20T18:02:39.036Z,98906.13
2023-11-20T18:05:08.724Z,98909.44
2023-11-20T18:07:37.773Z,98907.97
2023-11-20T18:10:12.412Z,98914.66
2023-11-20T18:12:42.362Z,98921.06
2023-11-20T18:15:11.941Z,98926.66
2023-11-20T18:17:40.768Z,98916.59
2023-11-20T18:20:10.524Z,98928.72
2023-11-20T18:22:37.525Z,98929.81
2023-11-20T18:25:04.734Z,98932.72
2023-11-20T18:27:31.517Z,98925.00
2023-11-20T18:29:58.198Z,98930.44
2023-11-20T18:32:25.050Z,98929.56
2023-11-20T18:34:51.872Z,98919.34
2023-11-20T18:37:19.201Z,98930.25
2023-11-20T18:39:48.624Z,98926.66
2023-11-20T18:42:15.822Z,98937.63
2023-11-20T18:44:45.610Z,98934.44
2023-11-20T18:47:12.443Z,98925.06
2023-11-20T18:49:42.152Z,98927.56
2023-11-20T18:52:08.966Z,98928.53
2023-11-20T18:54:36.259Z,98955.25
2023-11-20T18:57:03.351Z,98951.97
2023-11-20T18:59:32.463Z,98960.84
2023-11-20T19:01:59.318Z,98954.38
2023-11-20T19:04:26.127Z,98959.09
2023-11-20T19:06:56.135Z,98955.72
2023-11-20T19:09:23.603Z,98957.44
2023-11-20T19:11:50.412Z,98957.53
2023-11-20T19:14:17.059Z,98956.13
2023-11-20T19:16:43.756Z,98962.34
2023-11-20T19:19:11.579Z,98963.38
2023-11-20T19:21:38.381Z,98953.47
2023-11-20T19:24:05.818Z,98950.56
2023-11-20T19:26:35.292Z,98953.13
2023-11-20T19:29:01.998Z,98948.03
2023-11-20T19:31:28.750Z,98942.78
2023-11-20T19:33:55.531Z,98947.69
2023-11-20T19:36:22.350Z,98943.63
2023-11-20T19:38:51.335Z,98945.34
2023-11-20T19:41:18.083Z,98935.13
2023-11-20T19:43:44.791Z,98937.03
2023-11-20T19:46:11.786Z,98947.69
2023-11-20T19:48:38.618Z,98954.56
2023-11-20T19:51:05.814Z,98945.34
2023-11-20T19:53:32.753Z,98951.09
2023-11-20T19:55:59.381Z,98946.78
2023-11-20T19:58:26.296Z,98950.22
2023-11-20T20:00:55.472Z,98948.31
2023-11-20T20:03:22.988Z,98936.28
2023-11-20T20:05:51.701Z,98941.41
2023-11-20T20:08:18.683Z,98942.25
2023-11-20T20:10:45.634Z,98936.47
2023-11-20T20:13:12.635Z,98931.44
2023-11-20T20:15:39.614Z,98923.97
2023-11-20T20:18:06.545Z,98931.44
2023-11-20T20:20:33.538Z,98933.16
2023-11-20T20:23:00.508Z,98942.34
2023-11-20T20:25:27.487Z,98931.50
2023-11-20T20:27:54.262Z,98944.94
2023-11-20T20:30:21.947Z,98946.44
2023-11-20T20:32:50.942Z,98956.50
2023-11-20T20:35:17.658Z,98949.81
2023-11-20T20:37:44.505Z,98958.25
2023-11-20T20:40:16.664Z,98962.66
2023-11-20T20:42:44.042Z,98951.72
2023-11-20T20:45:11.061Z,98946.59
2023-11-20T20:47:37.945Z,98944.78
2023-11-20T20:50:05.276Z,98949.41
2023-11-20T20:52:32.097Z,98955.56
2023-11-20T20:55:02.147Z,98956.16
2023-11-20T20:57:29.993Z,98955.44
2023-11-20T20:59:56.877Z,98955.03
2023-11-20T21:02:23.813Z,98951.84
2023-11-20T21:04:51.299Z,98947.25
2023-11-20T21:07:18.073Z,98951.84
2023-11-20T21:09:46.165Z,98948.38
2023-11-20T21:12:12.919Z,98945.78
2023-11-20T21:14:39.585Z,98949.06
2023-11-20T21:17:06.241Z,98955.03
2023-11-20T21:19:33.200Z,98951.16
2023-11-20T21:22:00.147Z,98949.50
2023-11-20T21:24:27.083Z,98943.59
2023-11-20T21:26:53.799Z,98958.06
2023-11-20T21:29:20.952Z,98961.53
2023-11-20T21:31:48.110Z,98964.41
2023-11-20T21:34:17.909Z,98965.56
2023-11-20T21:36:44.627Z,98968.59
2023-11-20T21:39:19.551Z,98956.19
2023-11-20T21:41:50.281Z,98961.56
2023-11-20T21:44:18.225Z,98966.00
2023-11-20T21:46:45.489Z,98959.13
2023-11-20T21:49:12.612Z,98949.75
2023-11-20T21:51:39.262Z,98960.06
2023-11-20T21:54:06.268Z,98962.44
2023-11-20T21:56:34.855Z,98959.91
2023-11-20T21:59:01.529Z,98967.47
2023-11-20T22:01:28.451Z,98959.69
2023-11-20T22:03:55.381Z,98964.00
2023-11-20T22:06:23.156Z,98964.59
2023-11-20T22:08:50.217Z,98964.28
2023-11-20T22:11:18.551Z,98957.84
2023-11-20T22:13:46.569Z,98961.06
2023-11-20T22:16:14.252Z,98950.19
2023-11-20T22:18:44.267Z,98958.47
2023-11-20T22:21:11.019Z,98961.78
2023-11-20T22:23:38.066Z,98960.13
2023-11-20T22:26:07.953Z,98960.38
2023-11-20T22:28:34.676Z,98959.75
2023-11-20T22:31:02.247Z,98966.44
2023-11-20T22:33:28.959Z,98954.38
2023-11-20T22:35:55.579Z,98948.66
2023-11-20T22:38:22.227Z,98965.47
2023-11-20T22:40:49.010Z,98964.53
2023-11-20T22:43:15.762Z,98969.38
2023-11-20T22:45:42.571Z,98967.66
2023-11-20T22:48:09.589Z,98966.69
2023-11-20T22:50:36.297Z,98968.16
2023-11-20T22:53:02.999Z,98958.13
2023-11-20T22:55:29.677Z,98971.47
2023-11-20T22:57:56.346Z,98971.66
2023-11-20T23:00:28.202Z,98978.34
2023-11-20T23:02:55.486Z,98970.69
2023-11-20T23:05:22.897Z,98967.72
2023-11-20T23:07:50.252Z,98973.56
2023-11-20T23:10:17.072Z,98974.94
2023-11-20T23:12:43.895Z,98978.22
2023-11-20T23:15:17.656Z,98990.03
2023-11-20T23:17:44.755Z,98984.41
2023-11-20T23:20:19.647Z,98984.13
2023-11-20T23:22:47.234Z,98983.06
2023-11-20T23:25:20.201Z,98983.00
2023-11-20T23:27:48.973Z,98965.34
2023-11-20T23:30:18.289Z,98975.72
2023-11-20T23:32:46.427Z,98976.31
2023-11-20T23:35:13.353Z,98976.31
2023-11-20T23:37:41.482Z,98979.44
2023-11-20T23:40:12.760Z,98986.31
2023-11-20T23:42:40.059Z,98987.69
2023-11-20T23:45:07.441Z,98996.25
2023-11-20T23:47:37.663Z,98994.72
2023-11-20T23:50:05.589Z,98996.25
2023-11-20T23:52:32.856Z,99009.00
2023-11-20T23:54:59.627Z,99009.13
2023-11-20T23:57:26.404Z,99020.63
2023-11-20T23:59:53.030Z,99017.25
